Time;durP1;ratioP1;P1;durP2;ratioP2;P2;SDS_P1;SDS_P2;PMS_P1;PMS_P2;Temp;Humidity;BMP_temperature;BMP_pressure;BME280_temperature;BME280_humidity;BME280_pressure;Samples;Min_cycle;Max_cycle;Signal;HPM_P1;HPM_P2
2023/04/09 00:00:24;;;;;;;3.33;2.53;;;;;;;18.73;44.60;101419.75;5033963;28;20056;-45
2023/04/09 00:02:52;;;;;;;4.10;2.30;;;;;;;18.74;44.60;101424.13;5034387;28;20049;-46
2023/04/09 00:05:19;;;;;;;5.70;2.63;;;;;;;18.71;44.62;101425.22;5053903;28;20052;-46
2023/04/09 00:07:47;;;;;;;3.10;2.25;;;;;;;18.72;44.62;101423.41;5053868;28;20045;-45
2023/04/09 00:10:14;;;;;;;4.55;3.05;;;;;;;18.71;44.66;101427.88;5053750;28;20045;-49
2023/04/09 00:12:42;;;;;;;4.57;2.30;;;;;;;18.72;44.63;101426.09;5051888;28;20049;-45
2023/04/09 00:15:09;;;;;;;3.42;2.38;;;;;;;18.72;44.68;101434.13;5033706;28;20042;-48
2023/04/09 00:17:43;;;;;;;3.38;2.38;;;;;;;18.71;44.66;101419.00;5033773;28;20064;-46
2023/04/09 00:20:11;;;;;;;3.97;2.40;;;;;;;18.72;44.62;101423.41;5034068;28;20045;-46
2023/04/09 00:22:38;;;;;;;4.70;2.30;;;;;;;18.71;44.77;101419.84;5033469;28;20045;-46
2023/04/09 00:25:06;;;;;;;4.60;2.90;;;;;;;18.71;44.67;101430.56;5033336;28;20050;-51
2023/04/09 00:27:33;;;;;;;3.38;2.60;;;;;;;18.71;44.71;101427.88;5033876;28;20050;-55
2023/04/09 00:30:00;;;;;;;6.57;3.13;;;;;;;18.71;44.83;101424.34;5033454;28;20431;-55
2023/04/09 00:32:28;;;;;;;3.75;2.60;;;;;;;18.72;44.88;101428.78;5033487;28;20046;-55
2023/04/09 00:34:55;;;;;;;3.47;2.38;;;;;;;18.70;44.76;101425.34;5033916;28;20057;-47
2023/04/09 00:37:22;;;;;;;3.75;2.40;;;;;;;18.70;44.74;101439.59;5031874;28;20080;-46
2023/04/09 00:39:50;;;;;;;3.53;2.65;;;;;;;18.71;44.84;101437.78;5033467;28;20072;-47
2023/04/09 00:42:17;;;;;;;3.20;2.30;;;;;;;18.70;44.93;101438.75;5033767;28;20491;-46
2023/04/09 00:44:44;;;;;;;5.28;2.50;;;;;;;18.70;44.73;101436.91;5031718;28;20057;-52
2023/04/09 00:47:12;;;;;;;4.93;2.90;;;;;;;18.69;44.93;101435.19;5033352;28;20045;-53
2023/04/09 00:49:39;;;;;;;4.78;2.90;;;;;;;18.70;44.82;101434.22;5033251;28;20049;-55
2023/04/09 00:52:07;;;;;;;4.07;2.97;;;;;;;18.70;44.76;101436.91;5038711;28;20057;-54
2023/04/09 00:54:34;;;;;;;4.65;2.83;;;;;;;18.69;44.87;101431.66;5051896;28;20068;-53
2023/04/09 00:57:02;;;;;;;3.05;2.60;;;;;;;18.69;44.85;101437.84;5041572;28;20046;-54
2023/04/09 00:59:30;;;;;;;4.47;2.80;;;;;;;18.69;44.87;101437.84;5031750;28;20056;-54
2023/04/09 01:01:57;;;;;;;7.47;2.60;;;;;;;18.69;44.92;101448.59;5033008;28;20053;-55
2023/04/09 01:04:25;;;;;;;3.38;2.65;;;;;;;18.69;44.81;101440.53;5031977;28;20565;-54
2023/04/09 01:07:10;;;;;;;3.80;2.72;;;;;;;18.68;44.72;101446.88;5033676;28;20057;-46
2023/04/09 01:09:47;;;;;;;3.85;2.80;;;;;;;18.69;44.85;101442.38;5039143;28;20052;-46
2023/04/09 01:12:14;;;;;;;3.60;2.53;;;;;;;18.68;44.76;101446.88;5053022;28;20368;-46
2023/04/09 01:14:48;;;;;;;5.68;3.17;;;;;;;18.68;44.83;101449.56;5053389;28;20388;-46
2023/04/09 01:17:27;;;;;;;4.63;2.85;;;;;;;18.68;44.85;101452.25;5051093;28;20056;-47
2023/04/09 01:19:55;;;;;;;3.80;3.13;;;;;;;18.68;44.88;101454.94;5051872;28;20056;-50
2023/04/09 01:22:47;;;;;;;3.88;2.72;;;;;;;18.68;44.83;101459.44;5053096;28;20052;-47
2023/04/09 01:25:18;;;;;;;4.20;2.60;;;;;;;18.68;44.78;101456.75;5052023;28;20045;-54
2023/04/09 01:28:29;;;;;;;4.05;3.08;;;;;;;18.68;44.85;101460.28;5050884;28;20057;-53
2023/04/09 01:31:05;;;;;;;4.68;2.80;;;;;;;18.68;44.79;101464.81;5036485;28;20049;-55
2023/04/09 01:33:33;;;;;;;3.35;2.80;;;;;;;18.67;44.89;101455.88;5052933;28;20045;-55
2023/04/09 01:36:03;;;;;;;4.68;3.25;;;;;;;18.67;44.96;101457.69;5055144;28;20056;-56
2023/04/09 01:38:32;;;;;;;4.53;3.00;;;;;;;18.67;44.86;101455.03;5056710;28;20040;-52
2023/04/09 01:41:01;;;;;;;5.45;3.20;;;;;;;18.66;44.92;101454.16;5057056;28;20052;-53
2023/04/09 01:43:31;;;;;;;5.65;3.28;;;;;;;18.67;44.89;101455.03;5055455;28;20056;-55
2023/04/09 01:46:02;;;;;;;4.28;2.78;;;;;;;18.66;44.86;101456.84;5055628;28;20053;-46
2023/04/09 01:48:30;;;;;;;3.30;2.40;;;;;;;18.67;44.94;101455.03;5056961;28;20055;-47
2023/04/09 01:50:58;;;;;;;3.97;2.85;;;;;;;18.66;44.79;101459.53;5055175;28;20064;-46
2023/04/09 01:53:29;;;;;;;4.65;2.53;;;;;;;18.66;44.82;101456.00;5056342;28;20414;-46
2023/04/09 01:56:00;;;;;;;3.50;2.90;;;;;;;18.67;44.86;101449.66;5055425;28;20507;-46
2023/04/09 01:58:28;;;;;;;4.47;2.75;;;;;;;18.67;44.90;101444.28;5039319;28;20124;-49
2023/04/09 02:01:02;;;;;;;4.25;3.05;;;;;;;18.66;44.80;101448.81;5036215;28;20488;-49
2023/04/09 02:03:45;;;;;;;4.13;2.60;;;;;;;18.67;44.89;101444.28;5036680;28;20053;-48
2023/04/09 02:06:17;;;;;;;4.53;2.88;;;;;;;18.66;44.89;101440.75;5035499;28;20053;-54
2023/04/09 02:08:46;;;;;;;4.88;3.05;;;;;;;18.66;44.92;101443.44;5034909;28;20373;-55
2023/04/09 02:11:15;;;;;;;5.38;3.70;;;;;;;18.66;44.80;101446.13;5036094;28;20057;-55
2023/04/09 02:13:43;;;;;;;4.90;3.13;;;;;;;18.66;44.84;101442.59;5044116;28;20076;-54
2023/04/09 02:16:13;;;;;;;4.10;2.90;;;;;;;18.66;44.85;101448.81;5054697;28;20049;-55
2023/04/09 02:18:41;;;;;;;3.92;3.28;;;;;;;18.65;44.88;101444.41;5056389;28;20399;-55
2023/04/09 02:21:10;;;;;;;4.65;2.80;;;;;;;18.65;44.76;101452.47;5054913;28;20071;-55
2023/04/09 02:23:37;;;;;;;5.07;2.65;;;;;;;18.66;44.96;101450.63;5055771;28;20049;-54
2023/04/09 02:26:04;;;;;;;4.70;3.30;;;;;;;18.65;44.94;101447.09;5054189;28;20056;-47
2023/04/09 02:28:32;;;;;;;7.82;2.90;;;;;;;18.65;44.94;101449.78;5056229;28;20357;-47
2023/04/09 02:30:59;;;;;;;5.57;3.70;;;;;;;18.65;44.86;101451.63;5055796;28;20407;-46
2023/04/09 02:33:26;;;;;;;3.88;3.03;;;;;;;18.64;44.91;101458.81;5055949;28;20060;-46
2023/04/09 02:35:54;;;;;;;3.58;2.70;;;;;;;18.65;44.80;101455.16;5054757;28;20060;-52
2023/04/09 02:38:21;;;;;;;5.15;3.20;;;;;;;18.65;44.86;101452.47;5054226;28;20060;-55
2023/04/09 02:40:49;;;;;;;7.05;3.38;;;;;;;18.65;44.92;101451.63;5054937;28;20056;-55
2023/04/09 02:43:16;;;;;;;5.05;3.22;;;;;;;18.65;44.81;101455.16;5055699;28;20383;-55
2023/04/09 02:45:43;;;;;;;5.72;3.30;;;;;;;18.65;44.78;101452.47;5055177;28;20378;-55
2023/04/09 02:48:11;;;;;;;6.18;3.30;;;;;;;18.65;44.81;101452.47;5054639;28;20049;-55
2023/04/09 02:50:39;;;;;;;4.45;3.15;;;;;;;18.65;44.76;101455.16;5053688;28;20061;-53
2023/04/09 02:53:07;;;;;;;5.68;3.70;;;;;;;18.65;44.88;101457.81;5055444;28;20049;-55
2023/04/09 02:55:34;;;;;;;4.97;3.40;;;;;;;18.65;44.87;101449.78;5054457;28;20057;-52
2023/04/09 02:58:01;;;;;;;5.28;3.10;;;;;;;18.64;44.75;101449.91;5051804;28;20064;-54
2023/04/09 03:00:28;;;;;;;4.72;3.55;;;;;;;18.64;44.58;101450.75;5034100;28;20046;-54
2023/04/09 03:02:56;;;;;;;7.07;3.10;;;;;;;18.63;44.69;101451.69;5046175;28;20053;-54
2023/04/09 03:05:24;;;;;;;4.07;3.25;;;;;;;18.63;44.76;101454.38;5055820;28;20059;-53
2023/04/09 03:07:52;;;;;;;4.57;3.22;;;;;;;18.64;44.60;101449.91;5055111;28;20049;-55
2023/04/09 03:10:20;;;;;;;4.93;2.97;;;;;;;18.63;44.65;101448.16;5053793;28;20495;-55
2023/04/09 03:12:47;;;;;;;6.53;3.55;;;;;;;18.63;44.57;101451.69;5053531;28;20049;-51
2023/04/09 03:15:14;;;;;;;5.43;3.30;;;;;;;18.62;44.68;101441.09;5055409;28;20048;-55
2023/04/09 03:17:42;;;;;;;4.75;3.28;;;;;;;18.63;44.73;101445.50;5054803;28;20053;-55
2023/04/09 03:20:10;;;;;;;4.30;3.15;;;;;;;18.63;44.73;101450.84;5054836;28;20079;-54
2023/04/09 03:22:38;;;;;;;4.47;3.58;;;;;;;18.62;44.76;101451.81;5053351;28;20060;-55
2023/04/09 03:25:21;;;;;;;3.78;3.22;;;;;;;18.62;44.65;101444.63;5053974;28;20072;-54
2023/04/09 03:27:53;;;;;;;8.82;3.30;;;;;;;18.62;44.59;101449.16;5053312;28;20053;-53
2023/04/09 03:30:30;;;;;;;5.32;3.40;;;;;;;18.61;44.62;101455.50;5053603;28;20044;-54
2023/04/09 03:33:00;;;;;;;4.22;3.17;;;;;;;18.61;44.53;101450.13;5053867;28;20419;-52
2023/04/09 03:35:31;;;;;;;4.78;3.45;;;;;;;18.61;44.59;101455.50;5052874;28;20056;-46
2023/04/09 03:38:00;;;;;;;4.85;3.33;;;;;;;18.61;44.59;101459.03;5052958;28;20060;-46
2023/04/09 03:40:27;;;;;;;3.72;2.80;;;;;;;18.61;44.52;101461.69;5054673;28;20052;-46
2023/04/09 03:42:54;;;;;;;4.15;2.90;;;;;;;18.60;44.63;101454.63;5054395;28;20049;-46
2023/04/09 03:45:22;;;;;;;3.60;2.70;;;;;;;18.60;44.58;101465.34;5053808;28;20060;-55
2023/04/09 03:47:51;;;;;;;4.05;3.03;;;;;;;18.60;44.48;101464.50;5053123;28;20049;-55
2023/04/09 03:50:22;;;;;;;4.47;3.25;;;;;;;18.60;44.49;101457.31;5054162;28;20456;-54
2023/04/09 03:52:53;;;;;;;5.88;3.10;;;;;;;18.60;44.66;101460.00;5037246;28;20049;-53
2023/04/09 03:55:21;;;;;;;4.45;3.00;;;;;;;18.59;44.63;101452.91;5053289;28;20060;-55
2023/04/09 03:57:50;;;;;;;5.47;3.00;;;;;;;18.60;44.68;101461.81;5052232;28;20553;-54
2023/04/09 04:00:21;;;;;;;5.07;3.28;;;;;;;18.59;44.62;101455.56;5039049;28;20041;-55
2023/04/09 04:03:10;;;;;;;4.57;3.00;;;;;;;18.59;44.62;101455.56;5032678;28;20058;-54
2023/04/09 04:06:02;;;;;;;5.47;3.30;;;;;;;18.59;44.65;101460.09;5033934;28;20059;-53
2023/04/09 04:08:40;;;;;;;4.03;2.95;;;;;;;18.58;44.63;101466.44;5033087;28;20060;-46
2023/04/09 04:11:08;;;;;;;5.93;3.00;;;;;;;18.59;44.65;101468.13;5033150;28;20060;-48
2023/04/09 04:13:35;;;;;;;3.80;3.35;;;;;;;18.59;44.70;101469.00;5032734;28;20499;-46
2023/04/09 04:16:08;;;;;;;4.20;3.20;;;;;;;18.60;44.82;101469.88;5032710;28;20057;-48
2023/04/09 04:18:37;;;;;;;5.07;3.17;;;;;;;18.59;44.82;101471.66;5032677;28;20061;-46
2023/04/09 04:21:04;;;;;;;4.20;2.92;;;;;;;18.59;44.70;101471.66;5032688;28;20050;-46
2023/04/09 04:23:33;;;;;;;6.03;3.13;;;;;;;18.58;44.82;101461.91;5032331;28;20049;-46
2023/04/09 04:26:17;;;;;;;4.38;3.10;;;;;;;18.59;44.82;101471.66;5032716;28;20498;-49
2023/04/09 04:28:45;;;;;;;5.43;3.28;;;;;;;18.59;44.65;101473.50;5032608;28;20053;-47
2023/04/09 04:31:24;;;;;;;3.85;2.83;;;;;;;18.59;44.74;101478.84;5034017;28;20052;-47
2023/04/09 04:33:52;;;;;;;4.60;3.00;;;;;;;18.58;44.63;101472.66;5032093;28;20049;-46
2023/04/09 04:36:19;;;;;;;4.60;3.33;;;;;;;18.58;44.60;101482.53;5032374;28;20053;-55
2023/04/09 04:38:50;;;;;;;3.88;2.83;;;;;;;18.58;44.62;101487.88;5033325;28;20056;-54
2023/04/09 04:41:33;;;;;;;4.00;3.00;;;;;;;18.58;44.62;101490.56;5034065;28;20538;-54
2023/04/09 04:44:14;;;;;;;5.90;3.33;;;;;;;18.57;44.57;101487.03;5052252;28;20071;-54
2023/04/09 04:46:42;;;;;;;3.95;3.00;;;;;;;18.58;44.66;101488.72;5052795;28;20048;-46
2023/04/09 04:49:10;;;;;;;4.72;3.38;;;;;;;18.57;44.61;101487.03;5051533;28;20056;-47
2023/04/09 04:51:45;;;;;;;4.97;3.10;;;;;;;18.57;44.57;101495.06;5052101;28;20056;-46
2023/04/09 04:54:14;;;;;;;4.93;3.50;;;;;;;18.58;44.53;101495.94;5051546;28;20053;-46
2023/04/09 04:56:48;;;;;;;4.95;3.55;;;;;;;18.56;44.57;101498.72;5052673;28;20056;-52
2023/04/09 04:59:30;;;;;;;4.20;3.00;;;;;;;18.57;44.72;101499.59;5052116;28;20491;-54
2023/04/09 05:02:03;;;;;;;5.53;3.33;;;;;;;18.56;44.59;101493.38;5032664;28;20045;-53
2023/04/09 05:04:37;;;;;;;4.90;3.00;;;;;;;18.57;44.65;101499.59;5032894;28;20053;-55
2023/04/09 05:07:06;;;;;;;5.22;3.58;;;;;;;18.57;44.59;101500.44;5032135;28;20045;-55
2023/04/09 05:09:45;;;;;;;4.57;3.28;;;;;;;18.55;44.63;101507.72;5031490;28;20060;-55
2023/04/09 05:12:16;;;;;;;4.43;3.13;;;;;;;18.55;44.53;101505.03;5048113;28;20057;-55
2023/04/09 05:14:47;;;;;;;4.97;3.28;;;;;;;18.55;44.46;101505.03;5033524;28;20068;-46
2023/04/09 05:17:15;;;;;;;4.65;3.45;;;;;;;18.55;44.50;101510.41;5031791;28;20042;-46
2023/04/09 05:19:53;;;;;;;4.72;3.30;;;;;;;18.54;44.56;101501.50;5031886;28;20388;-46
2023/04/09 05:22:27;;;;;;;4.75;3.17;;;;;;;18.54;44.51;101503.31;5031918;28;20084;-49
2023/04/09 05:24:54;;;;;;;4.25;3.20;;;;;;;18.53;44.69;101502.47;5033328;28;20054;-47
2023/04/09 05:27:24;;;;;;;4.13;3.38;;;;;;;18.54;44.76;101506.00;5031636;28;20052;-49
2023/04/09 05:29:56;;;;;;;4.82;2.97;;;;;;;18.51;44.68;101504.44;5032375;28;20050;-46
2023/04/09 05:32:26;;;;;;;5.28;2.83;;;;;;;18.53;44.71;101510.53;5031821;28;20049;-46
2023/04/09 05:34:54;;;;;;;3.80;3.00;;;;;;;18.52;44.94;101506.13;5032091;28;20052;-54
2023/04/09 05:37:22;;;;;;;4.50;3.20;;;;;;;18.53;44.56;101512.34;5031718;28;20050;-54
2023/04/09 05:39:51;;;;;;;3.70;2.85;;;;;;;18.53;44.70;101507.00;5031820;28;20064;-55
2023/04/09 05:42:19;;;;;;;4.85;2.97;;;;;;;18.53;44.64;101512.34;5031869;28;20053;-53
2023/04/09 05:44:51;;;;;;;4.03;2.95;;;;;;;18.53;44.63;101509.66;5032765;28;20076;-47
2023/04/09 05:47:20;;;;;;;3.83;3.15;;;;;;;18.52;44.56;101516.84;5031375;28;20057;-49
2023/04/09 05:49:57;;;;;;;3.65;2.70;;;;;;;18.52;44.67;101521.38;5031701;28;20052;-47
2023/04/09 05:52:25;;;;;;;4.60;2.90;;;;;;;18.52;44.57;101522.22;5015075;28;20054;-46
2023/04/09 05:54:53;;;;;;;4.28;3.10;;;;;;;18.52;44.59;101526.72;5032014;28;20045;-54
2023/04/09 05:57:29;;;;;;;5.03;2.97;;;;;;;18.52;44.71;101529.41;5035055;28;20049;-55
2023/04/09 06:00:00;;;;;;;4.10;2.70;;;;;;;18.51;44.60;101530.34;5051202;28;20076;-54
2023/04/09 06:02:28;;;;;;;4.95;3.17;;;;;;;18.51;44.78;101536.59;5035916;28;20046;-55
2023/04/09 06:04:56;;;;;;;4.25;2.65;;;;;;;18.50;44.83;101548.28;5033084;28;20045;-48
2023/04/09 06:07:24;;;;;;;3.58;2.67;;;;;;;18.50;44.70;101548.28;5031508;28;20049;-47
2023/04/09 06:09:51;;;;;;;4.10;2.60;;;;;;;18.51;44.71;101554.50;5032539;28;20391;-46
2023/04/09 06:12:18;;;;;;;3.38;2.45;;;;;;;18.51;44.57;101551.81;5031683;28;20053;-47
2023/04/09 06:14:49;;;;;;;3.65;2.60;;;;;;;18.51;44.56;101558.06;5050040;28;20045;-46
2023/04/09 06:17:16;;;;;;;3.65;2.72;;;;;;;18.51;44.60;101552.69;5052212;28;20045;-51
2023/04/09 06:19:43;;;;;;;3.30;2.65;;;;;;;18.51;44.61;101557.16;5052361;28;20049;-46
2023/04/09 06:22:11;;;;;;;4.25;3.20;;;;;;;18.52;44.51;101550.88;5054513;28;20049;-46
2023/04/09 06:24:38;;;;;;;4.38;2.80;;;;;;;18.51;44.45;101558.06;5056159;28;20414;-46
2023/04/09 06:27:06;;;;;;;4.30;2.67;;;;;;;18.51;44.70;101552.69;5055888;28;20052;-46
2023/04/09 06:29:34;;;;;;;4.45;2.65;;;;;;;18.51;44.49;101558.06;5055776;28;20052;-48
2023/04/09 06:32:01;;;;;;;3.78;2.70;;;;;;;18.51;44.65;101566.09;5055910;28;20471;-46
2023/04/09 06:34:29;;;;;;;3.80;2.83;;;;;;;18.52;44.60;101564.28;5055678;28;20048;-54
2023/04/09 06:36:56;;;;;;;3.83;2.78;;;;;;;18.51;44.66;101566.09;5055808;28;20041;-54
2023/04/09 06:39:24;;;;;;;4.05;2.60;;;;;;;18.51;44.54;101568.78;5055960;28;20048;-55
2023/04/09 06:41:51;;;;;;;3.42;2.83;;;;;;;18.52;44.50;101569.63;5055662;28;20045;-53
2023/04/09 06:44:36;;;;;;;5.43;3.20;;;;;;;18.52;44.54;101564.28;5054828;28;20056;-46
2023/04/09 06:47:04;;;;;;;5.07;3.22;;;;;;;18.51;44.47;101571.47;5038472;28;20049;-47
2023/04/09 06:49:31;;;;;;;4.53;3.47;;;;;;;18.52;44.74;101573.16;5055622;28;20053;-48
2023/04/09 06:51:58;;;;;;;4.13;2.90;;;;;;;18.53;44.77;101576.69;5055394;28;20052;-48
2023/04/09 06:54:26;;;;;;;6.70;3.00;;;;;;;18.53;44.83;101579.38;5055651;28;20483;-47
2023/04/09 06:56:55;;;;;;;6.22;4.60;;;;;;;18.55;44.84;101580.13;5055329;28;20049;-50
2023/04/09 06:59:22;;;;;;;7.07;5.70;;;;;;;18.49;44.58;101586.78;5055565;28;20052;-50
2023/04/09 07:01:50;;;;;;;8.52;6.63;;;;;;;18.36;44.53;101591.31;5054175;28;20654;-47
2023/04/09 07:04:20;;;;;;;8.02;7.22;;;;;;;18.24;44.70;101598.38;5034101;28;20049;-57
2023/04/09 07:06:48;;;;;;;7.18;6.47;;;;;;;18.13;45.17;101600.06;5035573;28;20042;-50
2023/04/09 07:09:16;;;;;;;9.07;6.90;;;;;;;18.02;44.92;101604.31;5035145;28;20049;-49
2023/04/09 07:11:43;;;;;;;9.35;6.55;;;;;;;17.96;45.23;101602.06;5044008;28;20364;-49
2023/04/09 07:14:11;;;;;;;11.95;7.35;;;;;;;17.92;45.51;101597.03;5055217;28;20049;-49
2023/04/09 07:16:38;;;;;;;8.00;7.18;;;;;;;17.89;45.54;101600.75;5054996;28;20045;-56
2023/04/09 07:19:06;;;;;;;8.23;7.32;;;;;;;17.90;45.46;101602.47;5054921;28;20049;-57
2023/04/09 07:21:33;;;;;;;8.95;7.45;;;;;;;17.86;45.99;101600.97;5055166;28;20049;-56
2023/04/09 07:24:01;;;;;;;7.60;6.47;;;;;;;17.87;46.19;101601.84;5054589;28;20056;-57
2023/04/09 07:26:28;;;;;;;9.30;6.63;;;;;;;17.89;46.26;101605.28;5055055;28;20076;-57
2023/04/09 07:28:57;;;;;;;7.25;6.38;;;;;;;17.92;46.23;101613.97;5055353;28;20045;-50
2023/04/09 07:31:24;;;;;;;8.85;6.35;;;;;;;17.93;46.34;101620.16;5054787;28;20044;-52
2023/04/09 07:33:51;;;;;;;9.65;6.55;;;;;;;17.94;46.54;101617.38;5053757;28;20045;-50
2023/04/09 07:36:19;;;;;;;9.10;6.13;;;;;;;17.93;46.45;101620.16;5054956;28;20049;-50
2023/04/09 07:38:47;;;;;;;9.27;6.22;;;;;;;17.92;46.55;101616.63;5054596;28;20037;-49
2023/04/09 07:41:14;;;;;;;6.97;6.20;;;;;;;17.93;46.70;101623.72;5054655;28;20056;-50
2023/04/09 07:43:42;;;;;;;6.90;5.68;;;;;;;17.94;46.65;101620.06;5052874;28;20051;-52
2023/04/09 07:46:09;;;;;;;9.40;6.88;;;;;;;17.95;46.31;101623.63;5045579;28;20056;-48
2023/04/09 07:48:36;;;;;;;9.27;6.55;;;;;;;17.97;46.24;101616.31;5034864;28;20042;-50
2023/04/09 07:51:05;;;;;;;7.28;6.18;;;;;;;17.99;46.27;101612.59;5047444;28;20052;-50
2023/04/09 07:53:32;;;;;;;7.95;6.80;;;;;;;18.01;46.09;101624.03;5054029;28;20517;-49
2023/04/09 07:55:59;;;;;;;7.85;6.38;;;;;;;18.05;46.17;101622.03;5054302;28;20056;-51
2023/04/09 07:58:27;;;;;;;10.85;7.35;;;;;;;18.09;46.06;101628.88;5053156;28;20041;-51
2023/04/09 08:00:54;;;;;;;8.30;6.28;;;;;;;18.09;46.58;101620.00;5054160;28;20056;-54
2023/04/09 08:03:22;;;;;;;7.50;5.97;;;;;;;18.09;46.63;101618.16;5048796;28;20400;-53
2023/04/09 08:05:49;;;;;;;6.60;5.43;;;;;;;18.10;46.34;101617.19;5033628;28;20154;-54
2023/04/09 08:08:16;;;;;;;6.95;6.15;;;;;;;18.12;46.48;101611.75;5034504;28;20041;-51
2023/04/09 08:10:44;;;;;;;6.63;5.22;;;;;;;18.15;46.63;101617.75;5034067;28;20391;-53
2023/04/09 08:13:11;;;;;;;6.03;5.25;;;;;;;18.17;46.69;101615.81;5038495;28;20068;-53
2023/04/09 08:15:38;;;;;;;7.63;5.10;;;;;;;18.19;46.24;101621.06;5054316;28;20502;-54
2023/04/09 08:18:05;;;;;;;10.90;5.05;;;;;;;18.21;46.49;101619.16;5053826;28;20056;-51
2023/04/09 08:20:33;;;;;;;8.68;5.18;;;;;;;18.23;46.48;101610.06;5053808;28;20044;-49
2023/04/09 08:23:01;;;;;;;6.22;4.70;;;;;;;18.26;46.47;101617.88;5054190;28;20049;-52
2023/04/09 08:25:28;;;;;;;7.80;5.38;;;;;;;18.28;46.52;101617.78;5053504;28;20048;-50
2023/04/09 08:27:55;;;;;;;6.43;5.05;;;;;;;18.31;46.51;101622.03;5053601;28;20049;-50
2023/04/09 08:30:23;;;;;;;7.25;4.60;;;;;;;18.35;46.40;101620.88;5053900;28;20049;-53
2023/04/09 08:32:50;;;;;;;8.13;4.65;;;;;;;18.37;46.27;101627.00;5053872;28;20180;-50
2023/04/09 08:35:17;;;;;;;6.32;5.57;;;;;;;18.39;46.35;101635.78;5053604;28;20045;-49
2023/04/09 08:37:44;;;;;;;6.72;5.75;;;;;;;18.41;46.09;101637.41;5052858;28;20059;-49
2023/04/09 08:40:12;;;;;;;5.72;5.15;;;;;;;18.41;46.20;101634.72;5036599;28;20041;-47
2023/04/09 08:42:46;;;;;;;8.27;4.70;;;;;;;18.41;46.63;101640.09;5033930;28;20053;-48
2023/04/09 08:45:14;;;;;;;6.40;4.90;;;;;;;18.41;46.44;101637.41;5033829;28;20053;-53
2023/04/09 08:47:43;;;;;;;5.57;4.35;;;;;;;18.42;46.45;101643.63;5033398;28;20416;-49
2023/04/09 08:50:13;;;;;;;8.15;4.43;;;;;;;18.43;46.43;101638.16;5033332;28;20038;-52
2023/04/09 08:52:41;;;;;;;6.53;4.80;;;;;;;18.46;46.50;101639.75;5033270;28;20045;-50
2023/04/09 08:55:10;;;;;;;5.78;5.03;;;;;;;18.48;46.33;101635.16;5047991;28;20043;-51
2023/04/09 08:57:38;;;;;;;5.05;4.15;;;;;;;18.48;46.23;101637.84;5053073;28;20411;-48
2023/04/09 09:00:07;;;;;;;6.05;4.05;;;;;;;18.49;46.66;101635.03;5053397;28;20044;-49
2023/04/09 09:02:35;;;;;;;4.13;3.58;;;;;;;18.51;46.35;101637.59;5053046;28;20052;-49
2023/04/09 09:05:03;;;;;;;12.90;3.85;;;;;;;18.52;46.37;101640.19;5041916;28;20068;-50
2023/04/09 09:07:30;;;;;;;11.63;6.13;;;;;;;18.53;47.09;101635.69;5032512;28;20667;-56
2023/04/09 09:09:59;;;;;;;10.40;5.00;;;;;;;18.53;47.01;101636.56;5033187;28;20053;-56
2023/04/09 09:12:40;;;;;;;9.88;6.32;;;;;;;18.52;46.84;101639.34;5040641;28;20045;-51
2023/04/09 09:15:28;;;;;;;8.30;5.13;;;;;;;18.51;46.83;101640.28;5033326;28;20057;-46
2023/04/09 09:17:57;;;;;;;9.50;5.00;;;;;;;18.52;46.82;101637.53;5033097;28;20042;-45
2023/04/09 09:20:26;;;;;;;8.25;3.60;;;;;;;18.52;46.59;101633.97;5032625;28;20046;-47
2023/04/09 09:22:55;;;;;;;7.75;3.67;;;;;;;18.53;46.52;101638.38;5032993;28;20060;-48
2023/04/09 09:25:24;;;;;;;8.27;4.10;;;;;;;18.56;46.46;101635.50;5031613;28;20068;-53
2023/04/09 09:27:53;;;;;;;7.13;3.22;;;;;;;18.56;46.60;101635.50;5032951;28;20503;-53
2023/04/09 09:30:21;;;;;;;7.13;3.40;;;;;;;18.58;46.45;101628.19;5031986;28;20056;-52
2023/04/09 09:33:10;;;;;;;4.85;3.08;;;;;;;18.59;46.43;101627.19;5033028;28;20057;-51
2023/04/09 09:35:53;;;;;;;5.35;2.83;;;;;;;18.61;46.39;101633.34;5033081;28;20053;-52
2023/04/09 09:38:20;;;;;;;6.22;3.33;;;;;;;18.62;46.62;101631.50;5032939;28;20056;-51
2023/04/09 09:40:48;;;;;;;5.38;3.13;;;;;;;18.63;46.61;101636.75;5032802;28;20045;-49
2023/04/09 09:43:15;;;;;;;6.38;3.00;;;;;;;18.63;46.33;101623.34;5033291;28;20487;-50
2023/04/09 09:45:45;;;;;;;5.68;3.25;;;;;;;18.66;46.62;101630.31;5033039;28;20054;-46
2023/04/09 09:48:14;;;;;;;6.43;3.30;;;;;;;18.66;46.55;101628.50;5032808;28;20053;-48
2023/04/09 09:50:41;;;;;;;7.28;3.33;;;;;;;18.67;46.57;101635.56;5036932;28;20068;-48
2023/04/09 09:53:10;;;;;;;4.63;2.90;;;;;;;18.69;46.47;101635.47;5052753;28;20483;-47
2023/04/09 09:55:39;;;;;;;5.30;3.25;;;;;;;18.68;46.77;101640.00;5052436;28;20045;-47
2023/04/09 09:58:23;;;;;;;5.88;2.92;;;;;;;18.70;46.59;101634.53;5056575;28;20056;-45
2023/04/09 10:00:51;;;;;;;7.13;3.08;;;;;;;18.71;46.39;101633.56;5056339;28;20052;-46
2023/04/09 10:03:23;;;;;;;5.40;3.10;;;;;;;18.72;46.44;101630.78;5056423;28;20045;-50
2023/04/09 10:05:52;;;;;;;4.93;3.23;;;;;;;18.72;46.44;101635.31;5046465;28;20042;-50
2023/04/09 10:08:21;;;;;;;7.28;2.78;;;;;;;18.73;46.62;101635.19;5036078;28;20278;-49
2023/04/09 10:10:51;;;;;;;6.80;3.38;;;;;;;18.73;46.63;101628.97;5036294;28;20052;-49
2023/04/09 10:13:34;;;;;;;5.47;2.92;;;;;;;18.73;46.60;101635.19;5035567;28;20049;-52
2023/04/09 10:16:02;;;;;;;5.97;2.85;;;;;;;18.75;46.62;101633.22;5036453;28;20050;-49
2023/04/09 10:18:33;;;;;;;5.80;2.97;;;;;;;18.75;46.53;101627.88;5035787;28;20057;-46
2023/04/09 10:21:09;;;;;;;4.25;2.70;;;;;;;18.77;46.43;101619.72;5035871;28;20046;-49
2023/04/09 10:23:41;;;;;;;4.57;2.88;;;;;;;18.77;46.66;101615.22;5036344;28;20046;-46
2023/04/09 10:26:10;;;;;;;7.03;2.42;;;;;;;18.80;46.73;101618.63;5035796;28;20475;-49
2023/04/09 10:28:37;;;;;;;5.60;2.90;;;;;;;18.81;46.77;101613.19;5036550;28;20037;-49
2023/04/09 10:31:06;;;;;;;6.15;2.78;;;;;;;18.82;46.72;101611.34;5035708;28;20045;-50
2023/04/09 10:33:36;;;;;;;4.38;2.72;;;;;;;18.82;46.61;101612.22;5035543;28;20503;-54
2023/04/09 10:36:11;;;;;;;4.70;2.72;;;;;;;18.81;46.58;101605.13;5036018;28;20049;-47
2023/04/09 10:38:45;;;;;;;8.20;2.80;;;;;;;18.82;46.68;101608.66;5036120;28;20052;-49
2023/04/09 10:41:21;;;;;;;8.73;3.05;;;;;;;18.82;46.56;101614.03;5054947;28;20048;-47
2023/04/09 10:43:49;;;;;;;6.07;2.95;;;;;;;18.81;46.44;101610.50;5055456;28;20053;-47
2023/04/09 10:46:30;;;;;;;5.40;2.47;;;;;;;18.80;46.63;101608.78;5055335;28;20052;-47
2023/04/09 10:49:40;;;;;;;6.45;2.97;;;;;;;18.80;46.62;101605.22;5054837;28;20053;-46
2023/04/09 10:52:12;;;;;;;4.55;2.72;;;;;;;18.78;46.67;101603.53;5053693;28;20064;-47
2023/04/09 10:54:47;;;;;;;4.95;2.70;;;;;;;18.78;46.60;101599.97;5055088;28;20055;-53
2023/04/09 10:57:20;;;;;;;5.15;2.70;;;;;;;18.76;46.56;101600.09;5054869;28;20479;-51
2023/04/09 10:59:49;;;;;;;5.78;2.80;;;;;;;18.77;46.55;101595.59;5054673;28;20492;-50
2023/04/09 11:02:19;;;;;;;9.10;3.08;;;;;;;18.77;46.36;101603.63;5054726;28;20049;-52
2023/04/09 11:05:04;;;;;;;4.15;2.70;;;;;;;18.76;46.57;101597.41;5054729;28;20510;-47
2023/04/09 11:07:35;;;;;;;6.45;2.80;;;;;;;18.76;46.46;101600.09;5038860;28;20483;-46
2023/04/09 11:10:03;;;;;;;5.35;2.85;;;;;;;18.77;46.44;101595.59;5034430;28;20502;-46
2023/04/09 11:12:30;;;;;;;4.68;2.47;;;;;;;18.77;46.42;101590.22;5039532;28;20044;-46
2023/04/09 11:14:58;;;;;;;6.32;2.83;;;;;;;18.77;46.34;101592.91;5035023;28;20049;-46
2023/04/09 11:17:26;;;;;;;4.00;2.97;;;;;;;18.77;46.30;101592.91;5034473;28;20056;-48
2023/04/09 11:19:54;;;;;;;5.43;3.58;;;;;;;18.77;46.25;101592.91;5034340;28;20042;-47
2023/04/09 11:22:22;;;;;;;4.95;2.80;;;;;;;18.77;46.22;101593.75;5033526;28;20243;-47
2023/04/09 11:24:50;;;;;;;6.18;2.63;;;;;;;18.78;46.33;101595.47;5034322;28;20053;-48
2023/04/09 11:27:18;;;;;;;5.20;2.40;;;;;;;18.78;46.18;101589.25;5034350;28;20487;-48
2023/04/09 11:29:46;;;;;;;4.22;2.78;;;;;;;18.77;46.27;101588.41;5034291;28;20136;-47
2023/04/09 11:32:13;;;;;;;5.88;3.30;;;;;;;18.78;46.23;101589.25;5034507;28;20056;-46
2023/04/09 11:34:40;;;;;;;4.30;2.45;;;;;;;18.80;46.23;101594.50;5034566;28;20049;-46
2023/04/09 11:37:15;;;;;;;3.53;2.60;;;;;;;18.80;46.05;101589.13;5033868;28;20049;-47